Time;durP1;ratioP1;P1;durP2;ratioP2;P2;SDS_P1;SDS_P2;PMS_P1;PMS_P2;Temp;Humidity;BMP_temperature;BMP_pressure;BME280_temperature;BME280_humidity;BME280_pressure;Samples;Min_cycle;Max_cycle;Signal;HPM_P1;HPM_P2
2023/05/30 00:00:45;;;;;;;4.82;3.90;;;18.90;43.30;;;21.30;33.69;97885.97;4962855;28;20423;-39
2023/05/30 00:03:13;;;;;;;6.18;3.92;;;18.80;43.10;;;21.26;33.73;97888.28;4962274;28;20051;-39
2023/05/30 00:05:41;;;;;;;4.95;3.58;;;18.80;43.10;;;21.20;33.98;97886.47;4977630;28;20495;-39
2023/05/30 00:08:09;;;;;;;6.20;3.45;;;18.80;43.30;;;21.17;33.86;97892.34;4965495;28;20050;-40
2023/05/30 00:10:36;;;;;;;5.65;4.05;;;18.70;43.30;;;21.13;33.99;97897.38;4965625;28;20050;-38
2023/05/30 00:13:04;;;;;;;6.20;4.13;;;18.70;43.30;;;21.12;34.06;97894.91;4961101;28;20314;-39
2023/05/30 00:15:32;;;;;;;8.77;4.95;;;18.70;43.30;;;21.07;34.11;97883.91;4961704;28;20055;-40
2023/05/30 00:18:00;;;;;;;5.15;3.83;;;18.70;43.30;;;21.07;34.38;97892.84;4964912;28;20414;-39
2023/05/30 00:20:29;;;;;;;7.65;3.80;;;18.70;43.90;;;21.03;34.29;97895.19;4980182;28;20066;-39
2023/05/30 00:23:00;;;;;;;5.88;3.53;;;18.70;43.50;;;21.03;34.60;97905.16;4962133;28;20091;-39
2023/05/30 00:25:29;;;;;;;5.45;3.50;;;18.70;43.40;;;21.02;34.46;97903.53;4961837;28;20051;-39
2023/05/30 00:27:56;;;;;;;7.18;3.88;;;18.70;43.50;;;20.99;34.34;97902.06;4964065;28;20046;-48
2023/05/30 00:30:25;;;;;;;5.53;4.18;;;18.60;43.70;;;20.94;34.69;97904.63;4965141;28;20043;-38
2023/05/30 00:32:54;;;;;;;5.22;3.65;;;18.50;43.70;;;20.92;34.66;97900.47;4961180;28;20053;-38
2023/05/30 00:35:25;;;;;;;6.80;4.00;;;18.50;43.90;;;20.93;34.17;97902.13;4961849;28;20050;-38
2023/05/30 00:37:53;;;;;;;7.10;4.15;;;18.50;43.90;;;20.91;34.35;97905.06;4963512;28;20054;-38
2023/05/30 00:40:21;;;;;;;6.72;4.15;;;18.40;43.90;;;20.87;34.78;97903.03;4965191;28;20050;-38
2023/05/30 00:42:50;;;;;;;4.95;3.72;;;18.40;44.10;;;20.85;34.92;97908.66;4961687;28;20061;-39
2023/05/30 00:45:18;;;;;;;7.70;3.55;;;18.40;44.20;;;20.84;34.71;97909.72;4961749;28;20411;-38
2023/05/30 00:47:47;;;;;;;5.47;3.60;;;18.40;44.40;;;20.83;34.66;97903.47;4960773;28;20101;-38
2023/05/30 00:50:16;;;;;;;6.10;3.65;;;18.40;44.30;;;20.82;35.02;97907.22;4963735;28;20043;-39
2023/05/30 00:52:48;;;;;;;4.95;3.78;;;18.30;44.40;;;20.80;34.99;97911.19;4962622;28;20058;-38
2023/05/30 00:55:19;;;;;;;6.72;3.95;;;18.40;44.70;;;20.77;34.91;97912.47;4960565;28;20058;-38
2023/05/30 00:57:48;;;;;;;4.95;3.45;;;18.30;45.20;;;20.75;35.29;97916.44;4958748;28;20054;-38
2023/05/30 01:00:17;;;;;;;6.05;3.80;;;18.30;45.10;;;20.71;35.08;97913.34;4963587;28;20430;-38
2023/05/30 01:02:46;;;;;;;7.97;4.40;;;18.20;45.40;;;20.67;35.37;97911.31;4978253;28;20057;-38
2023/05/30 01:05:14;;;;;;;5.90;3.70;;;18.10;45.10;;;20.63;35.41;97905.50;4961432;28;20401;-38
2023/05/30 01:07:44;;;;;;;5.90;3.85;;;18.20;45.30;;;20.62;35.66;97917.34;4961578;28;20419;-39
2023/05/30 01:10:13;;;;;;;6.80;4.00;;;18.10;45.80;;;20.57;35.54;97918.00;4979302;28;20062;-39
2023/05/30 01:13:06;;;;;;;5.60;4.10;;;18.10;45.50;;;20.54;35.72;97910.31;4962878;28;20422;-38
2023/05/30 01:15:41;;;;;;;7.32;4.43;;;18.00;46.50;;;20.51;35.91;97913.47;4939763;29;20074;-39
2023/05/30 01:18:31;;;;;;;5.10;3.70;;;17.90;46.20;;;20.46;35.73;97900.59;4956233;28;20432;-38
2023/05/30 01:21:07;;;;;;;6.35;4.90;;;17.90;47.20;;;20.39;35.85;97899.78;4962747;28;20500;-38
2023/05/30 01:24:15;;;;;;;5.65;3.83;;;17.90;46.50;;;20.36;36.03;97902.94;4948389;28;20062;-38
2023/05/30 01:27:33;;;;;;;6.00;3.88;;;17.80;46.90;;;20.32;35.90;97893.63;4958724;28;20051;-38
2023/05/30 01:30:03;;;;;;;5.38;4.10;;;17.80;48.10;;;20.30;36.53;97890.31;4962525;28;20059;-38
2023/05/30 01:32:31;;;;;;;5.55;4.05;;;17.70;47.40;;;20.22;36.42;97891.38;4940390;29;20048;-38
2023/05/30 01:35:00;;;;;;;6.57;4.03;;;17.70;46.90;;;20.20;36.21;97885.38;4962910;28;20043;-38
2023/05/30 01:37:27;;;;;;;6.80;4.20;;;17.70;46.80;;;20.19;36.33;97891.00;4964333;28;20514;-38
2023/05/30 01:39:55;;;;;;;8.23;3.65;;;17.70;46.70;;;20.17;36.61;97891.19;4961004;28;20046;-38
2023/05/30 01:42:26;;;;;;;5.13;4.00;;;17.70;46.80;;;20.15;36.50;97890.59;4975236;28;20530;-38
2023/05/30 01:45:22;;;;;;;5.90;3.70;;;17.70;47.10;;;20.14;36.23;97890.81;4960943;28;20408;-38
2023/05/30 01:48:01;;;;;;;6.38;3.95;;;17.70;47.50;;;20.12;36.70;97898.28;4948292;28;20078;-38
2023/05/30 01:50:37;;;;;;;7.10;4.20;;;17.60;48.10;;;20.06;36.61;97895.44;4960618;28;20046;-38
2023/05/30 01:53:11;;;;;;;7.07;4.10;;;17.60;47.50;;;20.01;36.70;97894.41;4962937;28;20046;-38
2023/05/30 01:55:42;;;;;;;4.93;3.65;;;17.50;47.70;;;19.96;36.79;97897.75;4951138;28;20073;-38
2023/05/30 01:58:13;;;;;;;6.90;4.15;;;17.50;47.70;;;19.93;36.78;97891.94;4952239;28;20063;-38
2023/05/30 02:00:42;;;;;;;6.95;4.05;;;17.50;47.70;;;19.89;37.03;97896.97;4959534;28;20051;-38
2023/05/30 02:03:10;;;;;;;5.32;3.95;;;17.40;47.60;;;19.84;37.34;97892.19;4955475;28;20051;-38
2023/05/30 02:05:38;;;;;;;5.22;4.07;;;17.40;48.00;;;19.83;37.37;97889.69;4964473;28;20039;-38
2023/05/30 02:08:06;;;;;;;6.60;3.92;;;17.40;48.10;;;19.82;37.48;97897.00;4966169;28;20049;-38
2023/05/30 02:10:34;;;;;;;7.93;4.03;;;17.30;48.30;;;19.78;37.43;97892.25;4966510;28;20039;-39
2023/05/30 02:13:01;;;;;;;8.63;4.15;;;17.30;48.40;;;19.76;37.28;97895.16;4963291;28;20058;-39
2023/05/30 02:15:29;;;;;;;6.05;3.90;;;17.30;48.30;;;19.74;37.57;97893.72;4964210;28;20416;-39
2023/05/30 02:17:59;;;;;;;8.00;4.75;;;17.30;48.40;;;19.70;37.58;97889.72;4964340;28;20051;-39
2023/05/30 02:20:27;;;;;;;6.72;4.15;;;17.30;48.40;;;19.65;37.56;97890.38;4966678;28;20521;-39
2023/05/30 02:22:55;;;;;;;5.43;4.05;;;17.20;48.40;;;19.60;37.78;97890.16;4963673;28;20046;-39
2023/05/30 02:25:23;;;;;;;7.38;4.45;;;17.20;48.60;;;19.57;37.74;97890.63;4962507;28;20039;-39
2023/05/30 02:27:51;;;;;;;5.70;4.20;;;17.10;48.70;;;19.52;38.10;97891.22;4964690;28;20047;-38
2023/05/30 02:30:18;;;;;;;6.60;4.10;;;17.10;49.10;;;19.50;38.07;97898.72;4967394;28;20042;-38
2023/05/30 02:32:46;;;;;;;5.15;3.92;;;17.00;49.10;;;19.48;38.19;97909.75;4981377;28;20043;-39
2023/05/30 02:35:14;;;;;;;5.88;3.63;;;17.00;49.30;;;19.48;38.04;97908.91;4964220;28;20051;-39
2023/05/30 02:37:42;;;;;;;7.18;4.10;;;17.00;49.40;;;19.44;38.20;97907.66;4978127;28;20047;-39
2023/05/30 02:40:11;;;;;;;6.22;4.15;;;17.00;49.60;;;19.40;38.18;97909.13;4963708;28;20047;-39
2023/05/30 02:42:39;;;;;;;7.47;4.82;;;16.90;49.70;;;19.35;38.41;97908.94;4961948;28;20062;-39
2023/05/30 02:45:07;;;;;;;6.75;4.43;;;16.80;49.90;;;19.31;38.44;97905.00;4965126;28;20054;-39
2023/05/30 02:47:39;;;;;;;7.33;3.87;;;16.80;50.00;;;19.32;38.50;97899.41;4981642;28;20050;-39
2023/05/30 02:50:08;;;;;;;8.02;4.28;;;16.80;50.20;;;19.30;38.56;97901.47;4962643;28;20070;-39
2023/05/30 02:52:36;;;;;;;5.20;4.03;;;16.80;50.00;;;19.26;38.61;97901.06;4962333;28;20050;-39
2023/05/30 02:55:04;;;;;;;6.68;4.30;;;16.70;50.30;;;19.18;38.82;97900.47;4964891;28;20051;-39
2023/05/30 02:57:35;;;;;;;6.35;4.35;;;16.60;50.60;;;19.13;38.85;97911.88;4968089;28;20415;-38
2023/05/30 03:00:17;;;;;;;7.97;4.78;;;16.50;50.80;;;19.08;38.95;97906.31;4971166;28;20538;-39
2023/05/30 03:03:00;;;;;;;4.93;3.83;;;16.50;51.30;;;19.02;38.94;97913.34;4962605;28;20058;-39
2023/05/30 03:05:28;;;;;;;5.20;3.58;;;16.50;51.10;;;19.02;39.03;97915.22;4965317;28;20419;-38
2023/05/30 03:07:56;;;;;;;6.18;4.03;;;16.50;51.00;;;19.00;39.10;97918.13;4963277;28;20039;-39
2023/05/30 03:10:24;;;;;;;6.45;4.30;;;16.50;51.00;;;18.96;39.24;97911.50;4977915;28;20047;-39
2023/05/30 03:12:52;;;;;;;5.70;4.65;;;16.50;51.10;;;18.93;39.28;97911.91;4963823;28;20040;-39
2023/05/30 03:15:21;;;;;;;7.78;4.40;;;16.50;51.30;;;18.95;39.38;97919.78;4966300;28;20039;-38
2023/05/30 03:17:48;;;;;;;6.80;4.55;;;16.50;51.20;;;18.94;39.33;97913.56;4964165;28;20043;-38
2023/05/30 03:20:16;;;;;;;5.00;3.75;;;16.50;51.20;;;18.92;39.22;97920.19;4962782;28;20044;-39
2023/05/30 03:22:44;;;;;;;8.15;3.80;;;16.50;51.20;;;18.91;39.57;97922.06;4961222;28;20144;-38
2023/05/30 03:25:14;;;;;;;6.85;4.78;;;16.50;51.40;;;18.90;39.48;97920.41;4970359;28;20047;-38
2023/05/30 03:27:49;;;;;;;7.93;4.85;;;16.40;51.30;;;18.88;39.55;97912.53;4961038;28;20423;-38
2023/05/30 03:30:22;;;;;;;5.65;4.00;;;16.40;51.50;;;18.87;39.62;97916.25;4954869;28;20393;-38
2023/05/30 03:32:50;;;;;;;8.07;4.47;;;16.40;51.60;;;18.84;39.59;97926.63;4960347;28;20389;-38
2023/05/30 03:35:18;;;;;;;7.97;4.60;;;16.30;51.80;;;18.78;39.82;97919.34;4964667;28;20076;-38
2023/05/30 03:37:45;;;;;;;5.78;4.97;;;16.30;51.90;;;18.68;40.09;97928.66;4964945;28;20046;-39
2023/05/30 03:40:13;;;;;;;6.47;4.60;;;16.20;52.40;;;18.62;39.90;97928.66;4954785;28;20495;-39
2023/05/30 03:42:44;;;;;;;7.32;4.38;;;16.10;52.50;;;18.59;40.02;97932.63;4960971;28;20068;-38
2023/05/30 03:45:13;;;;;;;7.03;3.92;;;16.00;52.50;;;18.57;40.21;97933.84;4954557;28;20050;-38
2023/05/30 03:47:40;;;;;;;8.82;4.60;;;16.00;52.40;;;18.54;40.12;97929.69;4962073;28;20042;-38
2023/05/30 03:50:08;;;;;;;6.82;3.85;;;16.10;52.70;;;18.52;40.37;97934.47;4979704;28;20058;-38
2023/05/30 03:52:36;;;;;;;7.10;4.40;;;16.00;52.80;;;18.50;40.39;97936.53;4964188;28;20423;-38
2023/05/30 03:55:05;;;;;;;5.72;3.92;;;16.00;53.20;;;18.47;40.34;97936.94;4963529;28;20065;-38
2023/05/30 03:57:32;;;;;;;4.70;4.03;;;16.00;52.90;;;18.46;40.23;97940.69;4976453;28;20054;-38
2023/05/30 04:00:00;;;;;;;6.05;4.18;;;16.00;52.90;;;18.44;40.40;97945.44;4966015;28;20057;-38
2023/05/30 04:02:27;;;;;;;6.47;3.78;;;16.00;53.10;;;18.41;40.68;97949.34;4960387;28;20047;-38
2023/05/30 04:04:55;;;;;;;5.38;4.32;;;15.90;53.60;;;18.38;40.70;97943.53;4962797;28;20043;-38
2023/05/30 04:07:24;;;;;;;6.00;3.67;;;15.80;53.90;;;18.37;40.77;97944.59;4965164;28;20054;-38
2023/05/30 04:09:52;;;;;;;7.75;4.35;;;15.80;53.80;;;18.38;40.73;97951.63;4964960;28;20053;-39
2023/05/30 04:12:19;;;;;;;5.55;4.78;;;15.80;53.70;;;18.37;40.86;97953.50;4960382;28;20050;-39
2023/05/30 04:14:47;;;;;;;6.63;4.18;;;15.80;53.70;;;18.37;40.96;97953.50;4976903;28;20059;-39
2023/05/30 04:17:14;;;;;;;4.95;3.85;;;15.80;53.70;;;18.37;41.11;97958.88;4961378;28;20525;-38
2023/05/30 04:19:44;;;;;;;7.05;4.13;;;15.80;53.80;;;18.40;40.98;97957.69;4960033;28;20050;-39
2023/05/30 04:22:12;;;;;;;10.10;4.40;;;15.80;53.80;;;18.35;41.17;97963.66;4962783;28;20060;-39
2023/05/30 04:24:39;;;;;;;5.95;3.75;;;15.80;54.40;;;18.34;41.19;97970.09;4965182;28;20058;-39
2023/05/30 04:27:07;;;;;;;8.45;4.13;;;15.80;54.30;;;18.37;41.17;97966.16;4961449;28;20069;-38
2023/05/30 04:29:35;;;;;;;7.28;5.10;;;15.80;54.10;;;18.35;41.13;97965.53;4961851;28;20090;-38
2023/05/30 04:32:04;;;;;;;7.55;3.95;;;15.80;54.10;;;18.33;41.16;97964.91;4977391;28;20051;-39
2023/05/30 04:34:32;;;;;;;10.10;3.95;;;15.80;54.20;;;18.32;41.31;97965.91;4962883;28;20046;-38
2023/05/30 04:37:01;;;;;;;8.27;3.90;;;15.80;54.20;;;18.26;41.49;97957.63;4961955;28;20047;-39
2023/05/30 04:39:29;;;;;;;7.32;5.00;;;15.70;54.60;;;18.25;41.37;97957.84;4975788;28;20059;-38
2023/05/30 04:41:58;;;;;;;6.70;4.10;;;15.70;54.80;;;18.23;41.64;97966.09;4960376;28;20050;-39
2023/05/30 04:44:25;;;;;;;7.30;4.25;;;15.70;55.00;;;18.26;41.60;97967.56;4948052;28;20423;-38
2023/05/30 04:46:53;;;;;;;9.05;3.90;;;15.70;54.80;;;18.27;41.50;97970.06;4963120;28;20055;-38
2023/05/30 04:49:22;;;;;;;7.13;4.30;;;15.80;54.60;;;18.30;41.54;97975.06;4959786;28;20039;-39
2023/05/30 04:51:51;;;;;;;8.55;4.00;;;15.80;54.50;;;18.37;41.53;97977.75;4960332;28;20043;-38
2023/05/30 04:54:19;;;;;;;5.78;3.67;;;15.90;54.50;;;18.43;41.53;97981.50;4953911;28;20051;-38
2023/05/30 04:56:47;;;;;;;7.22;3.80;;;15.90;54.60;;;18.49;41.42;97986.09;4960196;28;20058;-39
2023/05/30 04:59:15;;;;;;;6.05;3.80;;;16.00;54.30;;;18.54;41.49;97991.69;4962650;28;20042;-38
2023/05/30 05:01:44;;;;;;;8.13;4.28;;;16.10;54.30;;;18.55;41.29;97997.91;4962993;28;20051;-38
2023/05/30 05:04:11;;;;;;;5.32;3.92;;;16.00;54.20;;;18.53;41.39;98002.69;4961354;28;20051;-38
2023/05/30 05:06:39;;;;;;;7.80;4.15;;;16.00;54.40;;;18.50;41.47;98004.75;4961165;28;20050;-38
2023/05/30 05:09:07;;;;;;;5.43;4.00;;;15.90;54.70;;;18.51;41.38;98002.88;4963036;28;20048;-39
2023/05/30 05:11:34;;;;;;;9.25;3.70;;;15.90;54.60;;;18.50;41.44;98002.06;4964463;28;20043;-38
2023/05/30 05:14:02;;;;;;;5.57;3.80;;;15.90;54.80;;;18.52;41.54;98003.72;4963446;28;20050;-38
2023/05/30 05:16:30;;;;;;;5.57;3.40;;;15.90;54.60;;;18.51;41.34;98005.56;4961334;28;20065;-39
2023/05/30 05:18:57;;;;;;;8.13;3.63;;;15.90;54.60;;;18.48;41.36;98008.69;4961549;28;20419;-39
2023/05/30 05:21:25;;;;;;;5.38;3.88;;;15.90;54.60;;;18.48;41.57;98001.44;4964302;28;20051;-39
2023/05/30 05:23:52;;;;;;;6.43;4.18;;;15.90;54.50;;;18.51;41.62;98005.56;4964968;28;20055;-39
2023/05/30 05:26:20;;;;;;;5.13;4.20;;;16.00;54.50;;;18.52;41.55;98004.56;4953480;28;20050;-39
2023/05/30 05:28:50;;;;;;;17.00;4.35;;;16.00;54.50;;;18.54;41.64;98015.16;4962834;28;20043;-39
2023/05/30 05:31:18;;;;;;;6.10;3.88;;;16.00;54.60;;;18.55;41.71;98008.69;4967810;28;20050;-39
2023/05/30 05:33:46;;;;;;;6.07;3.83;;;16.10;54.80;;;18.58;41.30;98011.00;4968324;28;20043;-39
2023/05/30 05:36:14;;;;;;;6.95;4.32;;;16.10;54.50;;;18.58;41.36;98009.13;4965427;28;20050;-39
2023/05/30 05:38:41;;;;;;;8.30;3.88;;;16.00;54.30;;;18.59;41.37;98015.34;4964883;28;20047;-39
2023/05/30 05:41:09;;;;;;;6.50;3.78;;;16.10;54.30;;;18.58;41.52;98011.81;4965333;28;20119;-39
2023/05/30 05:43:37;;;;;;;6.80;4.00;;;16.10;54.40;;;18.60;41.44;98023.25;4964914;28;20418;-39
2023/05/30 05:46:04;;;;;;;6.07;3.67;;;16.10;54.60;;;18.64;41.61;98027.19;4966007;28;20396;-39
2023/05/30 05:48:33;;;;;;;7.25;3.53;;;16.20;54.40;;;18.67;41.53;98032.19;4966868;28;20039;-39
2023/05/30 05:51:00;;;;;;;7.50;4.53;;;16.20;54.50;;;18.73;41.55;98024.28;4967004;28;20117;-39
2023/05/30 05:53:28;;;;;;;5.47;3.50;;;16.20;54.60;;;18.76;41.21;98032.81;4964849;28;20035;-39
2023/05/30 05:55:56;;;;;;;8.57;4.10;;;16.20;54.10;;;18.82;41.22;98032.03;4964444;28;20047;-39
2023/05/30 05:58:23;;;;;;;5.70;3.38;;;16.30;54.10;;;18.84;41.37;98037.22;4967820;28;20042;-39
2023/05/30 06:00:51;;;;;;;5.50;3.38;;;16.30;54.30;;;18.82;41.31;98034.72;4967773;28;20043;-39
2023/05/30 06:03:18;;;;;;;6.93;3.70;;;16.20;54.30;;;18.81;41.36;98029.56;4963953;28;20427;-39
2023/05/30 06:05:46;;;;;;;9.07;3.50;;;16.20;54.30;;;18.80;41.21;98031.41;4964337;28;20043;-39
2023/05/30 06:08:14;;;;;;;12.90;3.53;;;16.20;54.20;;;18.75;41.25;98035.75;4966607;28;20442;-39
2023/05/30 06:10:42;;;;;;;4.32;3.33;;;16.10;54.40;;;18.75;41.24;98035.75;4967502;28;20069;-39
2023/05/30 06:13:10;;;;;;;7.15;3.50;;;16.10;54.40;;;18.74;41.18;98042.16;4965608;28;20259;-39
2023/05/30 06:15:37;;;;;;;5.95;3.55;;;16.10;54.50;;;18.77;41.24;98052.53;4963123;28;20035;-39
2023/05/30 06:18:05;;;;;;;6.97;3.72;;;16.20;54.40;;;18.78;41.08;98054.19;4965181;28;20059;-39
2023/05/30 06:20:33;;;;;;;7.82;3.58;;;16.20;54.10;;;18.78;41.13;98057.72;4967516;28;20054;-38
2023/05/30 06:23:00;;;;;;;9.73;3.65;;;16.20;54.00;;;18.78;40.94;98054.19;4966492;28;20507;-38
2023/05/30 06:25:30;;;;;;;5.47;3.20;;;16.20;53.70;;;18.78;41.23;98057.72;4964163;28;20043;-39
2023/05/30 06:28:03;;;;;;;5.07;3.45;;;16.30;54.10;;;18.79;40.95;98055.88;4963509;28;20419;-38
2023/05/30 06:30:32;;;;;;;7.55;3.42;;;16.20;53.60;;;18.75;40.67;98052.75;4963391;28;20423;-38
2023/05/30 06:32:59;;;;;;;5.00;3.80;;;16.20;53.40;;;18.79;40.84;98056.69;4963697;28;20534;-39
2023/05/30 06:35:27;;;;;;;7.55;3.67;;;16.30;53.60;;;18.85;40.72;98058.59;4966896;28;20042;-38
2023/05/30 06:37:55;;;;;;;4.95;3.35;;;16.40;53.30;;;18.91;40.58;98056.13;4967161;28;20043;-38
2023/05/30 06:40:22;;;;;;;9.30;3.38;;;16.50;53.00;;;19.01;40.74;98061.94;4963222;28;20495;-39
2023/05/30 06:42:50;;;;;;;6.43;3.97;;;16.60;52.90;;;19.11;40.34;98065.06;4962660;28;20395;-39
2023/05/30 06:45:18;;;;;;;4.82;3.05;;;16.70;52.60;;;19.14;40.25;98061.16;4964292;28;20058;-39
2023/05/30 06:47:47;;;;;;;7.70;3.53;;;16.70;52.30;;;19.15;40.39;98066.31;4973136;28;20039;-39
2023/05/30 06:50:15;;;;;;;5.38;3.55;;;16.70;52.50;;;19.16;40.03;98069.88;4940708;28;20423;-38
2023/05/30 06:52:42;;;;;;;7.82;3.63;;;16.70;52.20;;;19.16;39.90;98072.56;4965757;28;20122;-38
2023/05/30 06:55:10;;;;;;;7.65;3.60;;;16.70;51.80;;;19.20;39.83;98069.25;4964378;28;20055;-38
2023/05/30 06:57:37;;;;;;;6.63;3.17;;;16.80;51.50;;;19.20;40.03;98071.94;4963297;28;20043;-39
2023/05/30 07:00:06;;;;;;;7.30;3.03;;;16.80;52.00;;;19.27;39.78;98066.56;4960338;28;20051;-39
2023/05/30 07:02:33;;;;;;;8.35;3.22;;;16.90;51.50;;;19.34;39.67;98066.56;4966469;28;20050;-39
2023/05/30 07:05:01;;;;;;;6.63;3.90;;;16.90;51.20;;;19.39;39.44;98067.59;4966495;28;20058;-39
2023/05/30 07:07:29;;;;;;;5.72;3.00;;;17.00;50.80;;;19.40;39.21;98061.13;4963271;28;20035;-39
2023/05/30 07:09:57;;;;;;;5.63;3.10;;;17.00;50.50;;;19.47;39.29;98067.38;4961894;28;20523;-39
2023/05/30 07:12:25;;;;;;;6.55;3.33;;;17.10;50.70;;;19.54;39.14;98061.13;4966305;28;20521;-38
2023/05/30 07:14:53;;;;;;;4.90;3.20;;;17.10;50.50;;;19.60;39.10;98058.44;4964071;28;20057;-38
2023/05/30 07:17:20;;;;;;;5.85;2.88;;;17.20;50.40;;;19.60;38.55;98060.31;4945968;28;20461;-38
2023/05/30 07:19:48;;;;;;;5.65;3.45;;;17.20;49.70;;;19.58;38.59;98055.13;4951217;28;20053;-38
2023/05/30 07:22:16;;;;;;;8.15;3.35;;;17.20;49.80;;;19.60;38.83;98054.91;4950565;28;20042;-38
2023/05/30 07:24:43;;;;;;;7.07;2.72;;;17.20;49.80;;;19.67;38.85;98063.84;4950399;28;20047;-38
2023/05/30 07:27:14;;;;;;;7.28;3.58;;;17.30;49.80;;;19.68;38.45;98063.63;4955480;28;20047;-48
2023/05/30 07:29:43;;;;;;;5.55;3.50;;;17.30;49.20;;;19.67;38.23;98066.53;4968385;28;20039;-52
2023/05/30 07:32:12;;;;;;;6.07;3.00;;;17.30;49.30;;;19.64;38.46;98061.56;4949528;28;20047;-52
2023/05/30 07:34:40;;;;;;;4.63;3.42;;;17.20;49.30;;;19.66;38.71;98067.59;4949797;28;20511;-53
2023/05/30 07:37:08;;;;;;;6.05;3.58;;;17.20;49.80;;;19.71;38.57;98075.06;4954361;29;20047;-51
2023/05/30 07:39:36;;;;;;;4.78;3.05;;;17.30;49.60;;;19.78;38.38;98068.63;4954639;29;20058;-53
2023/05/30 07:42:04;;;;;;;7.45;3.42;;;17.30;49.40;;;19.88;38.39;98073.63;4953585;29;20056;-50
2023/05/30 07:44:32;;;;;;;5.35;3.03;;;17.40;49.30;;;19.96;37.69;98065.28;4953593;29;20051;-52
2023/05/30 07:47:00;;;;;;;10.23;3.78;;;17.50;48.60;;;19.94;38.19;98063.84;4954147;29;20364;-51
2023/05/30 07:49:27;;;;;;;7.47;3.03;;;17.50;49.10;;;19.97;38.29;98066.94;4962180;28;20039;-50
2023/05/30 07:51:55;;;;;;;7.38;4.15;;;17.50;49.50;;;20.02;38.08;98063.59;4953397;28;20035;-51
2023/05/30 07:54:25;;;;;;;6.20;3.45;;;17.60;49.20;;;20.03;38.34;98066.09;4970180;28;20039;-49
2023/05/30 07:56:54;;;;;;;8.82;3.28;;;17.60;49.50;;;20.11;38.18;98065.03;4953013;29;20058;-52
2023/05/30 07:59:21;;;;;;;7.63;4.25;;;17.70;49.20;;;20.17;38.05;98052.56;4953866;29;20050;-52
2023/05/30 08:01:49;;;;;;;5.65;3.50;;;17.70;49.10;;;20.23;38.18;98060.63;4954047;28;20047;-47
2023/05/30 08:04:16;;;;;;;4.97;3.10;;;17.80;49.00;;;20.25;37.99;98057.72;4954080;29;20058;-52
2023/05/30 08:06:44;;;;;;;7.50;3.10;;;17.70;48.90;;;20.35;37.89;98049.16;4953862;29;20051;-50
2023/05/30 08:09:12;;;;;;;5.43;4.35;;;17.80;48.90;;;20.45;37.92;98057.63;4953579;29;20054;-48
2023/05/30 08:11:39;;;;;;;9.18;3.85;;;18.00;49.00;;;20.53;37.36;98053.84;4953630;29;20035;-51
2023/05/30 08:14:07;;;;;;;6.72;3.42;;;18.10;48.50;;;20.56;37.23;98053.44;4952289;29;20067;-54
2023/05/30 08:16:34;;;;;;;6.30;3.22;;;18.10;48.00;;;20.56;37.44;98054.25;4954188;28;20039;-49
2023/05/30 08:19:03;;;;;;;6.38;3.45;;;18.10;48.20;;;20.59;37.84;98055.72;4953794;28;20043;-52
2023/05/30 08:21:32;;;;;;;7.25;3.63;;;18.10;48.60;;;20.64;37.10;98053.22;4953613;28;20047;-50
2023/05/30 08:24:00;;;;;;;6.25;3.53;;;18.10;47.70;;;20.69;37.03;98055.28;4953651;29;20047;-53
2023/05/30 08:26:31;;;;;;;7.28;3.58;;;18.20;47.90;;;20.71;37.08;98061.31;4946586;28;20059;-51
2023/05/30 08:29:00;;;;;;;7.50;3.72;;;18.20;48.00;;;20.71;37.30;98061.31;4946033;28;20066;-50
2023/05/30 08:31:28;;;;;;;8.77;3.95;;;18.30;47.90;;;20.75;36.94;98057.94;4962635;28;20051;-48
2023/05/30 08:33:55;;;;;;;5.75;3.85;;;18.30;47.80;;;20.77;37.10;98060.44;4949742;28;20058;-53
2023/05/30 08:36:23;;;;;;;4.07;3.05;;;18.30;47.60;;;20.82;37.08;98055.19;4948538;28;20043;-51
2023/05/30 08:38:54;;;;;;;5.90;3.33;;;18.40;47.70;;;20.87;36.87;98054.56;4950020;28;20455;-48
2023/05/30 08:41:40;;;;;;;5.20;4.22;;;18.40;47.20;;;20.94;36.69;98058.88;4958880;28;20043;-48
2023/05/30 08:44:08;;;;;;;5.07;3.30;;;18.50;47.70;;;20.98;36.58;98054.69;4960821;28;20051;-52
2023/05/30 08:46:42;;;;;;;6.57;3.80;;;18.50;47.30;;;21.03;36.86;98052.16;4964833;28;20049;-53
2023/05/30 08:49:15;;;;;;;6.10;3.60;;;18.60;47.50;;;21.16;37.07;98053.13;4962802;28;20058;-50
2023/05/30 08:51:43;;;;;;;8.90;3.50;;;18.70;47.40;;;21.27;36.71;98056.97;4961449;28;20047;-52
2023/05/30 08:54:28;;;;;;;4.53;2.72;;;18.80;47.30;;;21.31;36.36;98052.81;4961076;28;20039;-52
2023/05/30 08:57:17;;;;;;;22.20;7.05;;;18.90;46.70;;;21.37;36.33;98049.22;4948233;28;20050;-51
2023/05/30 08:59:48;;;;;;;9.57;5.65;;;19.00;46.60;;;21.47;36.06;98048.75;4954274;28;20047;-49
2023/05/30 09:02:18;;;;;;;10.13;3.65;;;19.00;46.50;;;21.52;36.15;98052.44;4960795;28;20047;-49
2023/05/30 09:04:49;;;;;;;7.57;4.25;;;19.10;46.60;;;21.54;36.11;98044.06;4964285;28;20050;-52
2023/05/30 09:07:18;;;;;;;23.45;7.53;;;19.10;46.30;;;21.62;36.26;98046.53;4962041;28;20070;-52
2023/05/30 09:09:46;;;;;;;5.35;3.70;;;19.10;46.30;;;21.70;36.31;98042.72;4943470;29;20047;-53
2023/05/30 09:12:13;;;;;;;8.40;4.30;;;19.20;46.30;;;21.73;35.83;98043.09;4962675;28;20407;-51
2023/05/30 09:14:41;;;;;;;4.35;3.22;;;19.30;46.00;;;21.72;35.62;98044.13;4965403;28;20510;-52
2023/05/30 09:17:09;;;;;;;4.72;3.05;;;19.30;45.70;;;21.73;35.54;98040.38;4965000;28;20046;-52
2023/05/30 09:19:38;;;;;;;12.20;4.22;;;19.30;45.40;;;21.74;36.18;98046.63;4976976;28;20043;-49
2023/05/30 09:22:06;;;;;;;5.07;3.65;;;19.40;46.00;;;21.78;35.93;98043.22;4944146;29;20524;-50
2023/05/30 09:25:01;;;;;;;5.05;3.00;;;19.40;45.70;;;21.83;35.55;98046.09;4954183;28;20066;-52
2023/05/30 09:27:33;;;;;;;6.18;3.80;;;19.40;45.10;;;21.91;35.43;98038.75;4964404;28;20077;-50
2023/05/30 09:30:10;;;;;;;6.80;3.47;;;19.50;45.40;;;22.03;35.42;98037.75;4965313;28;20487;-52
2023/05/30 09:32:38;;;;;;;6.45;4.07;;;19.60;45.30;;;22.05;35.05;98040.25;4961668;28;20039;-53
2023/05/30 09:35:09;;;;;;;6.68;3.40;;;19.60;45.20;;;22.07;35.24;98034.59;4962085;28;20067;-53
2023/05/30 09:37:39;;;;;;;7.85;3.70;;;19.70;45.20;;;22.09;35.00;98040.63;4961173;28;20058;-54
2023/05/30 09:40:12;;;;;;;7.28;4.00;;;19.70;45.20;;;22.11;34.97;98046.66;4961632;28;20047;-54
2023/05/30 09:42:48;;;;;;;7.10;3.42;;;19.70;45.10;;;22.12;35.11;98045.59;4953775;28;20043;-52
2023/05/30 09:45:21;;;;;;;5.35;3.63;;;19.60;44.30;;;22.06;34.76;98052.72;4961510;28;20484;-52
2023/05/30 09:47:51;;;;;;;5.35;3.20;;;19.60;44.70;;;22.00;35.20;98050.94;4965072;28;20039;-54
2023/05/30 09:50:22;;;;;;;6.72;3.80;;;19.50;45.20;;;22.02;35.59;98046.09;4963682;28;20046;-54
2023/05/30 09:52:56;;;;;;;5.25;3.58;;;19.50;45.60;;;22.11;35.42;98042.06;4960064;28;20047;-54
2023/05/30 09:55:25;;;;;;;5.03;3.88;;;19.70;45.70;;;22.21;35.73;98045.06;4963703;28;20051;-52
2023/05/30 09:57:54;;;;;;;5.07;4.40;;;19.80;45.50;;;22.30;35.53;98047.53;4964846;28;20637;-53
2023/05/30 10:00:25;;;;;;;5.90;4.10;;;19.90;45.30;;;22.30;35.30;98042.09;4960629;28;20609;-52
2023/05/30 10:02:55;;;;;;;7.25;4.22;;;19.90;44.80;;;22.34;34.72;98043.28;4960871;28;20472;-53
2023/05/30 10:05:26;;;;;;;6.07;3.55;;;19.90;44.20;;;22.35;35.24;98042.22;4963244;28;20380;-50
2023/05/30 10:07:57;;;;;;;6.05;4.15;;;20.00;44.90;;;22.39;35.05;98043.41;4965046;28;20043;-50
2023/05/30 10:10:25;;;;;;;5.90;3.15;;;20.00;44.60;;;22.45;35.13;98039.81;4962668;28;20043;-52
2023/05/30 10:12:55;;;;;;;4.72;3.58;;;20.00;44.50;;;22.50;34.64;98029.09;4961326;28;20054;-52
2023/05/30 10:15:25;;;;;;;5.43;3.42;;;20.10;44.20;;;22.57;35.11;98035.28;4965744;28;20039;-50
2023/05/30 10:18:06;;;;;;;7.38;3.65;;;20.20;44.30;;;22.66;34.65;98030.34;4967322;28;20035;-53
2023/05/30 10:20:44;;;;;;;5.38;3.58;;;20.30;43.70;;;22.78;34.87;98030.41;4965148;28;20391;-53
2023/05/30 10:23:16;;;;;;;6.90;4.18;;;20.40;44.40;;;22.89;34.60;98034.22;4979535;28;20051;-50
2023/05/30 10:25:54;;;;;;;5.55;3.50;;;20.50;44.10;;;22.98;34.51;98028.22;4967212;28;20054;-51
2023/05/30 10:28:28;;;;;;;6.80;3.83;;;20.60;43.90;;;23.09;34.26;98017.63;4965404;28;20050;-52